Date,TemperatureHighF,TemperatureAvgF,TemperatureLowF,DewpointHighF,DewpointAvgF,DewpointLowF,HumidityHigh,HumidityAvg,HumidityLow,PressureMaxIn,PressureMinIn,WindSpeedMaxMPH,WindSpeedAvgMPH,GustSpeedMaxMPH,PrecipitationSumIn
2013-1-1,48.5,46.0,42.5,47.0,39.4,27.7,97,79,48,30.14,29.93,9,1,0,0.24
2013-1-2,47.2,43.2,38.7,46.3,39.4,35.4,97,87,70,30.22,29.95,11,2,0,0.17
2013-1-3,42.4,37.7,27.5,37.7,35.4,26.3,95,91,80,30.30,30.17,4,1,0,0.01
2013-1-4,48.7,36.3,24.9,27.0,23.9,20.5,95,64,35,30.36,30.23,12,3,0,0.00
2013-1-5,49.6,38.5,27.5,32.0,24.5,21.0,79,58,36,30.42,30.27,12,2,0,0.00
2013-1-6,52.2,44.5,39.5,38.0,34.5,28.5,82,68,54,30.27,30.08,7,1,0,0.00
2013-1-7,50.0,39.1,28.3,31.9,29.5,25.9,93,71,47,30.47,30.28,10,1,0,0.00
2013-1-8,55.3,39.3,25.4,39.8,32.9,23.4,93,80,52,30.52,30.41,5,0,0,0.00
2013-1-9,66.0,49.1,32.6,53.1,43.4,31.1,95,82,62,30.48,30.38,8,1,0,0.00
2013-1-10,62.1,55.5,46.4,49.9,44.0,34.8,94,67,43,30.56,30.44,9,2,0,0.00
2013-1-11,47.6,44.7,39.6,46.8,43.5,37.2,97,96,90,30.40,30.18,5,1,0,0.12
2013-1-12,70.3,58.0,47.0,63.0,55.7,46.2,98,93,77,30.19,30.11,7,1,0,0.00
2013-1-13,74.2,63.1,53.6,61.7,57.6,52.9,98,84,62,30.14,30.05,10,2,0,0.01
2013-1-14,64.8,62.2,52.0,62.2,59.0,50.3,98,90,81,30.17,30.08,13,1,0,0.38
2013-1-15,52.0,43.4,41.5,50.0,42.3,40.7,98,96,93,30.27,30.11,15,3,0,0.12
2013-1-16,49.6,44.1,39.8,49.0,43.2,38.8,98,97,95,30.11,29.99,8,1,0,0.15
2013-1-17,49.8,44.8,32.8,49.3,43.7,31.6,98,96,92,30.18,29.93,19,3,0,1.28
2013-1-18,42.0,34.8,26.9,32.5,29.1,25.0,97,81,52,30.57,30.18,12,2,0,0.39
2013-1-19,52.1,40.3,25.8,31.1,27.4,24.6,95,64,42,30.54,30.32,7,2,0,0.02
2013-1-21,57.7,48.8,27.2,35.3,26.2,16.6,94,44,30,30.09,29.88,18,4,0,0.00
2013-1-22,41.5,30.4,22.4,17.5,8.4,1.0,57,39,27,30.32,29.98,17,4,0,0.00
2013-1-23,40.7,30.4,15.9,18.4,12.8,4.0,86,50,33,30.42,30.09,13,2,0,0.00
2013-1-24,36.0,30.8,21.5,25.7,11.7,1.5,67,46,29,30.56,29.99,27,3,0,0.00
2013-1-25,26.2,23.1,18.2,24.0,15.9,5.1,92,75,46,30.57,30.16,6,1,0,0.01
2013-1-26,36.9,29.6,24.9,31.7,27.1,23.4,95,91,76,30.45,30.13,6,1,0,0.07
2013-1-27,39.6,30.5,19.7,28.9,24.0,17.6,95,78,58,30.65,30.44,12,1,0,0.03
2013-1-28,50.5,42.2,31.3,46.3,35.7,26.5,90,78,59,30.54,30.25,9,2,0,0.03
2013-1-29,69.9,54.7,49.2,55.4,49.1,46.2,92,82,59,30.26,30.12,11,4,0,0.00